Terminal Aerodrome Forecast
Issued by NWS

Home | Current Version | Previous Version | Text Only | Print | Product List | Glossary On
Versions: 1 2 3 4 5 6 7 8 9 10 11 12 13 14 15 16 17 18 19 20 21 22 23 24 25 26 27 28 29 30 31 32
000
FTUS45 KGJT 052351
TAFMTJ
TAF
KMTJ 052351Z 0600/0624 16007KT P6SM -SHRA SCT025 BKN050 BKN080
      TEMPO 0600/0604 P6SM NSW SCT050 BKN070
     FM060400 18005KT P6SM VCSH SCT060 BKN090
      TEMPO 0605/0609 -RA BKN050
     FM060900 14004KT 5SM -RA BR OVC030
     FM061700 01005KT P6SM VCSH SCT045 BKN080=

USA.gov is the U.S. government's official web portal to all federal, state and local government web resources and services.